createdAt,value
2018-02-21T00:01:08.039Z,47.03
2018-02-21T00:03:39.052Z,46.67
2018-02-21T00:06:10.091Z,43.23
2018-02-21T00:08:41.117Z,47.35
2018-02-21T00:11:12.173Z,46.03
2018-02-21T00:13:43.174Z,44.08
2018-02-21T00:16:14.139Z,42.58
2018-02-21T00:18:45.132Z,47.07
2018-02-21T00:21:16.094Z,48.40
2018-02-21T00:23:47.136Z,43.53
2018-02-21T00:26:18.088Z,42.97
2018-02-21T00:28:49.140Z,45.90
2018-02-21T00:31:20.125Z,45.65
2018-02-21T00:33:51.152Z,49.63
2018-02-21T00:36:22.186Z,43.80
2018-02-21T00:38:53.259Z,44.65
2018-02-21T00:41:24.237Z,49.88
2018-02-21T00:43:55.247Z,49.97
2018-02-21T00:46:26.256Z,47.40
2018-02-21T00:48:57.236Z,47.15
2018-02-21T00:51:28.274Z,51.30
2018-02-21T00:53:59.317Z,48.85
2018-02-21T00:56:30.306Z,50.90
2018-02-21T00:59:01.362Z,52.63
2018-02-21T01:01:32.321Z,53.28
2018-02-21T01:04:03.289Z,53.70
2018-02-21T01:06:34.337Z,56.37
2018-02-21T01:09:05.285Z,55.17
2018-02-21T01:11:36.321Z,55.47
2018-02-21T01:14:07.283Z,57.13
2018-02-21T01:16:38.354Z,55.97
2018-02-21T01:19:09.309Z,57.65
2018-02-21T01:21:40.353Z,57.40
2018-02-21T01:24:11.342Z,58.22
2018-02-21T01:26:42.320Z,57.47
2018-02-21T01:29:13.383Z,58.93
2018-02-21T01:31:44.387Z,54.90
2018-02-21T01:34:15.360Z,67.53
2018-02-21T01:36:46.339Z,58.90
2018-02-21T01:39:17.324Z,60.73
2018-02-21T01:41:48.344Z,57.40
2018-02-21T01:44:19.324Z,57.10
2018-02-21T01:46:50.316Z,56.07
2018-02-21T01:49:21.320Z,67.22
2018-02-21T01:51:52.346Z,61.63
2018-02-21T01:54:23.371Z,64.25
2018-02-21T01:56:54.323Z,67.78
2018-02-21T01:59:25.343Z,60.83
2018-02-21T02:01:56.329Z,60.30
2018-02-21T02:04:27.321Z,70.47
2018-02-21T02:06:58.315Z,62.78
2018-02-21T02:09:29.362Z,66.87
2018-02-21T02:12:00.339Z,62.42
2018-02-21T02:14:31.325Z,64.33
2018-02-21T02:17:02.354Z,72.65
2018-02-21T02:19:33.360Z,67.37
2018-02-21T02:22:04.363Z,64.97
2018-02-21T02:24:35.293Z,61.72
2018-02-21T02:27:06.337Z,60.03
2018-02-21T02:29:37.320Z,66.40
2018-02-21T02:32:08.496Z,60.80
2018-02-21T02:34:39.473Z,72.03
2018-02-21T02:37:10.443Z,64.97
2018-02-21T02:40:05.455Z,69.67
2018-02-21T02:42:36.496Z,65.87
2018-02-21T02:45:07.521Z,69.03
2018-02-21T02:47:38.507Z,63.05
2018-02-21T02:50:09.532Z,70.53
2018-02-21T02:52:40.486Z,65.60
2018-02-21T02:55:11.467Z,68.50
2018-02-21T02:57:42.421Z,70.63
2018-02-21T03:00:13.453Z,64.00
2018-02-21T03:02:44.424Z,65.35
2018-02-21T03:05:15.438Z,60.77
2018-02-21T03:07:46.415Z,62.72
2018-02-21T03:10:17.384Z,64.23
2018-02-21T03:12:48.368Z,65.13
2018-02-21T03:15:19.348Z,59.33
2018-02-21T03:17:50.331Z,69.77
2018-02-21T03:20:21.300Z,69.40
2018-02-21T03:22:52.289Z,61.67
2018-02-21T03:25:23.286Z,69.62
2018-02-21T03:27:54.271Z,68.32
2018-02-21T03:30:25.241Z,59.47
2018-02-21T03:32:56.244Z,58.20
2018-02-21T03:35:27.198Z,64.00
2018-02-21T03:37:58.151Z,63.93
2018-02-21T03:40:29.147Z,58.33
2018-02-21T03:43:00.131Z,63.60
2018-02-21T03:45:31.136Z,68.00
2018-02-21T03:48:02.127Z,62.30
2018-02-21T03:50:33.153Z,55.28
2018-02-21T03:53:04.159Z,56.25
2018-02-21T03:55:35.149Z,58.55
2018-02-21T03:58:06.155Z,56.33
2018-02-21T04:00:37.132Z,61.47
2018-02-21T04:03:08.137Z,57.87
2018-02-21T04:05:39.137Z,53.70
2018-02-21T04:08:10.140Z,56.37
2018-02-21T04:10:41.137Z,54.10
2018-02-21T04:13:12.134Z,61.33
2018-02-21T04:15:43.578Z,56.15
2018-02-21T04:18:14.548Z,54.65
2018-02-21T04:20:45.533Z,55.20
2018-02-21T04:23:18.192Z,54.90
2018-02-21T04:25:49.195Z,59.97
2018-02-21T04:28:20.192Z,55.38
2018-02-21T04:30:51.215Z,62.85
2018-02-21T04:33:22.157Z,61.08
2018-02-21T04:35:53.162Z,55.83
2018-02-21T04:38:24.148Z,59.92
2018-02-21T04:40:55.195Z,59.70
2018-02-21T04:43:26.211Z,64.72
2018-02-21T04:45:57.265Z,63.87
2018-02-21T04:48:28.202Z,61.90
2018-02-21T04:50:59.210Z,65.03
2018-02-21T04:53:30.293Z,65.30
2018-02-21T04:59:30.939Z,62.47
2018-02-21T05:02:01.955Z,67.70
2018-02-21T05:04:32.980Z,63.22
2018-02-21T05:07:03.961Z,69.07
2018-02-21T05:09:34.999Z,67.30
2018-02-21T05:12:06.051Z,66.40
2018-02-21T05:14:37.009Z,65.68
2018-02-21T05:17:08.030Z,64.27
2018-02-21T05:19:40.705Z,69.40
2018-02-21T05:22:11.672Z,68.75
2018-02-21T05:24:42.700Z,73.80
2018-02-21T05:27:13.710Z,65.85
2018-02-21T05:29:44.777Z,64.18
2018-02-21T05:32:15.759Z,68.40
2018-02-21T05:34:46.891Z,67.70
2018-02-21T05:37:17.942Z,59.63
2018-02-21T05:39:49.046Z,69.60
2018-02-21T05:42:20.107Z,79.05
2018-02-21T05:44:51.095Z,73.18
2018-02-21T05:47:22.109Z,75.55
2018-02-21T05:49:53.084Z,66.37
2018-02-21T05:52:24.082Z,69.10
2018-02-21T05:54:55.032Z,72.68
2018-02-21T05:57:26.015Z,70.30
2018-02-21T05:59:57.030Z,78.23
2018-02-21T06:02:28.014Z,79.78
2018-02-21T06:04:59.047Z,80.32
2018-02-21T06:07:30.021Z,83.82
2018-02-21T06:10:01.024Z,72.87
2018-02-21T06:12:32.004Z,83.05
2018-02-21T06:15:03.012Z,76.97
2018-02-21T06:17:33.987Z,78.93
2018-02-21T06:20:04.973Z,79.30
2018-02-21T06:22:35.935Z,72.95
2018-02-21T06:25:07.018Z,70.03
2018-02-21T06:27:38.030Z,77.32
2018-02-21T06:30:09.020Z,73.55
2018-02-21T06:32:40.020Z,69.87
2018-02-21T06:35:10.986Z,65.62
2018-02-21T06:37:41.989Z,62.33
2018-02-21T06:40:12.930Z,66.20
2018-02-21T06:42:43.961Z,67.63
2018-02-21T06:45:14.939Z,67.87
2018-02-21T06:47:45.949Z,72.83
2018-02-21T06:50:17.002Z,62.65
2018-02-21T06:52:54.853Z,64.62
2018-02-21T06:55:25.823Z,61.00
2018-02-21T06:57:56.810Z,62.07
2018-02-21T07:00:27.848Z,64.07
2018-02-21T07:02:58.827Z,61.70
2018-02-21T07:05:29.856Z,71.73
2018-02-21T07:08:00.845Z,67.95
2018-02-21T07:10:31.839Z,64.47
2018-02-21T07:13:02.827Z,61.97
2018-02-21T07:15:33.865Z,63.20
2018-02-21T07:18:04.818Z,65.27
2018-02-21T07:20:35.797Z,59.33
2018-02-21T07:23:06.814Z,65.33
2018-02-21T07:25:37.838Z,61.42
2018-02-21T07:28:08.827Z,62.88
2018-02-21T07:30:39.834Z,56.23
2018-02-21T07:33:10.872Z,63.92
2018-02-21T07:35:41.887Z,60.58
2018-02-21T07:38:12.906Z,66.20
2018-02-21T07:40:43.993Z,60.78
2018-02-21T07:43:14.997Z,65.62
2018-02-21T07:45:45.969Z,63.53
2018-02-21T07:48:17.021Z,59.00
2018-02-21T07:50:48.036Z,61.42
2018-02-21T07:53:19.067Z,58.67
2018-02-21T07:55:50.086Z,54.07
2018-02-21T07:58:21.102Z,54.47
2018-02-21T08:00:52.100Z,58.75
2018-02-21T08:03:23.130Z,53.47
2018-02-21T08:05:54.096Z,52.97
2018-02-21T08:08:25.110Z,58.97
2018-02-21T08:10:56.176Z,60.47
2018-02-21T08:13:27.211Z,57.60
2018-02-21T08:15:58.196Z,58.10
2018-02-21T08:18:29.205Z,58.33
2018-02-21T08:21:00.200Z,56.40
2018-02-21T08:23:31.165Z,52.63
2018-02-21T08:26:02.180Z,52.53
2018-02-21T08:28:33.158Z,49.33
2018-02-21T08:31:04.165Z,48.60
2018-02-21T08:33:35.160Z,49.20
2018-02-21T08:36:06.152Z,48.80
2018-02-21T08:38:37.176Z,51.73
2018-02-21T08:41:08.232Z,48.57
2018-02-21T08:43:39.294Z,50.03
2018-02-21T08:46:10.332Z,50.00
2018-02-21T08:48:41.311Z,48.60
2018-02-21T08:51:12.263Z,44.77
2018-02-21T08:53:43.280Z,48.57
2018-02-21T08:56:14.278Z,45.23
2018-02-21T08:58:45.258Z,49.93
2018-02-21T09:01:16.270Z,47.57
2018-02-21T09:03:47.253Z,48.63
2018-02-21T09:06:18.306Z,46.53
2018-02-21T09:08:49.329Z,47.07
2018-02-21T09:11:20.368Z,50.20
2018-02-21T09:13:51.347Z,47.57
2018-02-21T09:16:22.355Z,47.70
2018-02-21T09:18:53.370Z,50.00
2018-02-21T09:21:24.408Z,49.83
2018-02-21T09:23:55.422Z,48.90
2018-02-21T09:26:26.363Z,50.07
2018-02-21T09:28:57.361Z,50.60
2018-02-21T09:31:28.348Z,50.23
2018-02-21T09:33:59.314Z,46.10
2018-02-21T09:36:30.303Z,47.90
2018-02-21T09:39:01.295Z,46.07
2018-02-21T09:41:32.332Z,47.97
2018-02-21T09:44:03.287Z,47.00
2018-02-21T09:46:34.230Z,47.83
2018-02-21T09:49:05.245Z,45.10
2018-02-21T09:51:36.265Z,47.10
2018-02-21T09:54:07.271Z,48.00
2018-02-21T09:56:38.238Z,46.67
2018-02-21T09:59:09.244Z,45.23
2018-02-21T10:01:40.186Z,47.17
2018-02-21T10:04:11.143Z,45.57
2018-02-21T10:06:42.140Z,48.90
2018-02-21T10:09:13.222Z,46.83
2018-02-21T10:11:44.235Z,47.33
2018-02-21T10:14:15.263Z,49.20
2018-02-21T10:16:46.242Z,47.40
2018-02-21T10:19:17.204Z,47.43
2018-02-21T10:21:48.254Z,48.97
2018-02-21T10:24:19.269Z,48.63
2018-02-21T10:26:50.220Z,47.50
2018-02-21T10:29:21.239Z,47.07
2018-02-21T10:31:52.233Z,50.57
2018-02-21T10:34:23.232Z,49.23
2018-02-21T10:36:54.225Z,48.00
2018-02-21T10:39:25.193Z,46.90
2018-02-21T10:41:56.159Z,48.77
2018-02-21T10:44:27.138Z,48.63
2018-02-21T10:46:58.125Z,47.07
2018-02-21T10:49:29.150Z,44.97
2018-02-21T10:52:00.150Z,46.57
2018-02-21T10:54:31.118Z,45.63
2018-02-21T10:57:02.112Z,49.57
2018-02-21T10:59:33.178Z,46.73
2018-02-21T11:02:04.179Z,46.47
2018-02-21T11:04:35.226Z,45.10
2018-02-21T11:07:06.230Z,46.00
2018-02-21T11:09:37.246Z,44.63
2018-02-21T11:12:08.244Z,46.27
2018-02-21T11:14:46.221Z,44.83
2018-02-21T11:17:17.242Z,43.73
2018-02-21T11:19:48.220Z,43.63
2018-02-21T11:22:19.216Z,44.50
2018-02-21T11:24:50.250Z,44.77
2018-02-21T11:27:21.252Z,42.63
2018-02-21T11:29:52.225Z,40.93
2018-02-21T11:32:23.204Z,45.67
2018-02-21T11:34:54.183Z,43.03
2018-02-21T11:37:25.175Z,42.03
2018-02-21T11:39:56.144Z,42.97
2018-02-21T11:42:27.164Z,40.70
2018-02-21T11:44:58.152Z,40.53
2018-02-21T11:47:29.181Z,38.87
2018-02-21T11:50:00.189Z,37.50
2018-02-21T11:52:31.208Z,41.50
2018-02-21T11:55:02.219Z,41.47
2018-02-21T11:57:33.252Z,46.63
2018-02-21T12:00:04.277Z,36.30
2018-02-21T12:02:35.255Z,40.40
2018-02-21T12:05:06.293Z,44.20
2018-02-21T12:07:37.288Z,51.63
2018-02-21T12:10:08.329Z,40.40
2018-02-21T12:12:39.336Z,40.50
2018-02-21T12:15:10.361Z,41.37
2018-02-21T12:17:41.377Z,41.90
2018-02-21T12:20:12.378Z,41.33
2018-02-21T12:22:43.343Z,41.23
2018-02-21T12:25:14.339Z,43.60
2018-02-21T12:27:45.353Z,35.23
2018-02-21T12:30:16.369Z,37.57
2018-02-21T12:32:47.360Z,39.90
2018-02-21T12:35:18.346Z,31.80
2018-02-21T12:37:49.295Z,43.47
2018-02-21T12:40:26.506Z,42.17
2018-02-21T12:42:57.509Z,43.40
2018-02-21T12:45:28.501Z,35.00
2018-02-21T12:47:59.475Z,36.50
2018-02-21T12:50:30.436Z,40.00
2018-02-21T12:53:01.435Z,40.10
2018-02-21T12:55:32.407Z,35.67
2018-02-21T12:58:03.419Z,35.03
2018-02-21T13:00:34.419Z,34.93
2018-02-21T13:03:05.472Z,34.50
2018-02-21T13:05:36.420Z,35.67
2018-02-21T13:08:07.450Z,32.60
2018-02-21T13:10:38.500Z,37.47
2018-02-21T13:13:09.486Z,30.93
2018-02-21T13:15:40.523Z,33.57
2018-02-21T13:18:11.527Z,33.10
2018-02-21T13:20:42.543Z,35.73
2018-02-21T13:23:13.562Z,29.80
2018-02-21T13:25:44.585Z,29.40
2018-02-21T13:28:15.567Z,31.13
2018-02-21T13:30:46.597Z,30.17
2018-02-21T13:33:17.601Z,31.30
2018-02-21T13:35:48.618Z,27.77
2018-02-21T13:38:19.653Z,30.43
2018-02-21T13:40:50.665Z,31.23
2018-02-21T13:43:21.661Z,30.57
2018-02-21T13:45:52.694Z,28.13
2018-02-21T13:48:23.703Z,30.70
2018-02-21T13:50:54.683Z,27.30
2018-02-21T13:53:25.701Z,26.67
2018-02-21T13:55:56.766Z,28.80
2018-02-21T13:58:27.772Z,23.13
2018-02-21T14:00:58.796Z,26.23
2018-02-21T14:03:29.807Z,27.70
2018-02-21T14:06:00.834Z,25.23
2018-02-21T14:08:31.848Z,25.27
2018-02-21T14:11:02.880Z,25.23
2018-02-21T14:13:33.873Z,23.73
2018-02-21T14:16:04.872Z,25.70
2018-02-21T14:18:35.895Z,26.00
2018-02-21T14:21:06.868Z,28.83
2018-02-21T14:23:37.873Z,27.30
2018-02-21T14:26:08.852Z,23.77
2018-02-21T14:28:39.865Z,22.70
2018-02-21T14:31:10.827Z,24.07
2018-02-21T14:33:41.844Z,25.90
2018-02-21T14:36:12.870Z,27.37
2018-02-21T14:38:43.866Z,23.30
2018-02-21T14:41:14.879Z,21.03
2018-02-21T14:43:45.899Z,18.70
2018-02-21T14:46:16.887Z,23.73
2018-02-21T14:48:47.865Z,22.73
2018-02-21T14:51:18.894Z,20.13
2018-02-21T14:53:49.880Z,21.57
2018-02-21T14:56:20.923Z,21.57
2018-02-21T14:58:51.896Z,25.03
2018-02-21T15:01:22.939Z,24.47
2018-02-21T15:03:53.967Z,24.23
2018-02-21T15:06:24.938Z,24.63
2018-02-21T15:08:55.883Z,19.30
2018-02-21T15:11:26.859Z,21.90
2018-02-21T15:13:57.874Z,24.43
2018-02-21T15:16:28.878Z,20.43
2018-02-21T15:18:59.913Z,21.27
2018-02-21T15:21:30.906Z,21.97
2018-02-21T15:24:01.907Z,20.83
2018-02-21T15:26:32.904Z,22.10
2018-02-21T15:29:03.844Z,18.40
2018-02-21T15:31:34.829Z,20.80
2018-02-21T15:34:05.817Z,18.47
2018-02-21T15:36:36.882Z,19.70
2018-02-21T15:39:07.893Z,18.50
2018-02-21T15:41:38.835Z,18.27
2018-02-21T15:44:09.835Z,17.10
2018-02-21T15:46:40.861Z,18.00
2018-02-21T15:49:11.917Z,11.27
2018-02-21T15:51:42.917Z,15.47
2018-02-21T15:54:13.910Z,17.53
2018-02-21T15:56:44.909Z,13.77
2018-02-21T15:59:15.872Z,15.07
2018-02-21T16:01:46.886Z,18.30
2018-02-21T16:04:17.883Z,17.43
2018-02-21T16:06:48.885Z,15.10
2018-02-21T16:09:19.868Z,16.77
2018-02-21T16:11:50.887Z,17.53
2018-02-21T16:14:21.859Z,16.13
2018-02-21T16:16:52.881Z,17.73
2018-02-21T16:19:23.840Z,17.40
2018-02-21T16:21:54.813Z,19.23
2018-02-21T16:24:25.677Z,18.53
2018-02-21T16:26:56.717Z,20.43
2018-02-21T16:29:27.728Z,18.50
2018-02-21T16:31:58.757Z,16.33
2018-02-21T16:34:29.757Z,22.40
2018-02-21T16:37:00.737Z,20.07
2018-02-21T16:39:31.735Z,19.10
2018-02-21T16:42:02.768Z,18.50
2018-02-21T16:44:33.800Z,20.10
2018-02-21T16:47:04.756Z,19.97
2018-02-21T16:49:35.774Z,23.33
2018-02-21T16:52:06.782Z,19.13
2018-02-21T16:54:37.789Z,20.20
2018-02-21T16:57:09.298Z,19.87
2018-02-21T16:59:40.264Z,22.83
2018-02-21T17:02:11.306Z,22.90
2018-02-21T17:04:42.356Z,24.12
2018-02-21T17:07:13.430Z,19.47
2018-02-21T17:09:44.384Z,19.37
2018-02-21T17:12:15.403Z,17.97
2018-02-21T17:14:53.239Z,23.92
2018-02-21T17:17:24.224Z,23.80
2018-02-21T17:19:55.318Z,23.93
2018-02-21T17:22:26.328Z,19.97
2018-02-21T17:24:57.356Z,21.03
2018-02-21T17:27:28.369Z,22.17
2018-02-21T17:29:59.335Z,29.63
2018-02-21T17:32:30.333Z,19.90
2018-02-21T17:35:01.365Z,24.17
2018-02-21T17:37:32.400Z,24.27
2018-02-21T17:40:03.448Z,28.33
2018-02-21T17:42:34.451Z,24.87
2018-02-21T17:45:05.469Z,23.00
2018-02-21T17:47:36.450Z,25.05
2018-02-21T17:50:07.443Z,22.30
2018-02-21T17:52:38.403Z,24.47
2018-02-21T17:55:09.429Z,23.87
2018-02-21T17:57:40.424Z,24.03
2018-02-21T18:00:11.488Z,28.27
2018-02-21T18:02:42.488Z,23.77
2018-02-21T18:05:13.506Z,23.80
2018-02-21T18:07:44.540Z,24.30
2018-02-21T18:10:15.657Z,26.80
2018-02-21T18:12:46.701Z,23.93
2018-02-21T18:15:17.701Z,27.50
2018-02-21T18:17:48.747Z,29.17
2018-02-21T18:20:19.769Z,23.97
2018-02-21T18:22:52.486Z,27.63
2018-02-21T18:25:23.706Z,26.20
2018-02-21T18:27:54.728Z,28.90
2018-02-21T18:30:25.857Z,25.92
2018-02-21T18:32:57.014Z,23.13
2018-02-21T18:35:28.026Z,25.20
2018-02-21T18:37:58.991Z,23.17
2018-02-21T18:40:29.980Z,27.67
2018-02-21T18:43:01.058Z,21.47
2018-02-21T18:45:32.052Z,24.87
2018-02-21T18:48:03.042Z,23.80
2018-02-21T18:50:34.093Z,23.40
2018-02-21T18:53:05.085Z,27.13
2018-02-21T18:55:36.056Z,31.53
2018-02-21T18:58:07.096Z,23.63
2018-02-21T19:00:38.097Z,26.93
2018-02-21T19:03:09.118Z,26.27
2018-02-21T19:05:40.106Z,25.12
2018-02-21T19:08:11.152Z,27.93
2018-02-21T19:10:42.149Z,21.92
2018-02-21T19:13:13.163Z,23.97
2018-02-21T19:15:44.162Z,25.92
2018-02-21T19:18:15.196Z,23.70
2018-02-21T19:20:46.277Z,27.37
2018-02-21T19:23:17.301Z,28.08
2018-02-21T19:25:48.330Z,26.75
2018-02-21T19:28:19.373Z,26.55
2018-02-21T19:30:50.315Z,30.03
2018-02-21T19:33:21.306Z,28.07
2018-02-21T19:35:52.325Z,26.93
2018-02-21T19:38:23.317Z,25.45
2018-02-21T19:40:54.337Z,28.20
2018-02-21T19:43:25.341Z,28.12
2018-02-21T19:45:56.338Z,31.77
2018-02-21T19:48:27.321Z,28.57
2018-02-21T19:50:58.324Z,26.83
2018-02-21T19:53:29.303Z,28.40
2018-02-21T19:56:00.418Z,25.90
2018-02-21T19:58:31.414Z,26.47
2018-02-21T20:01:02.408Z,25.40
2018-02-21T20:03:33.424Z,25.23
2018-02-21T20:06:04.417Z,27.33
2018-02-21T20:08:35.448Z,23.70
2018-02-21T20:11:06.461Z,19.55
2018-02-21T20:13:37.504Z,24.05
2018-02-21T20:16:08.506Z,23.85
2018-02-21T20:18:39.519Z,24.20
2018-02-21T20:21:10.513Z,24.25
2018-02-21T20:23:41.455Z,26.83
2018-02-21T20:26:12.448Z,23.67
2018-02-21T20:28:43.416Z,24.30
2018-02-21T20:31:14.434Z,23.03
2018-02-21T20:33:45.452Z,25.65
2018-02-21T20:36:16.419Z,24.30
2018-02-21T20:38:47.466Z,23.30
2018-02-21T20:41:18.453Z,23.50
2018-02-21T20:43:49.488Z,21.43
2018-02-21T20:46:20.512Z,23.00
2018-02-21T20:48:51.556Z,23.38
2018-02-21T20:51:22.513Z,25.83
2018-02-21T20:53:53.493Z,25.87
2018-02-21T20:56:24.492Z,23.60
2018-02-21T20:58:55.508Z,22.33
2018-02-21T21:01:26.478Z,22.00
2018-02-21T21:03:57.471Z,24.57
2018-02-21T21:06:28.539Z,19.87
2018-02-21T21:09:03.096Z,23.40
2018-02-21T21:11:34.064Z,23.05
2018-02-21T21:14:05.064Z,24.00
2018-02-21T21:16:36.100Z,21.58
2018-02-21T21:19:07.120Z,27.05
2018-02-21T21:21:38.151Z,22.75
2018-02-21T21:24:09.162Z,23.02
2018-02-21T21:26:40.144Z,25.83
2018-02-21T21:29:11.173Z,23.40
2018-02-21T21:31:42.199Z,25.23
2018-02-21T21:34:13.211Z,21.05
2018-02-21T21:36:44.163Z,26.40
2018-02-21T21:39:15.156Z,22.60
2018-02-21T21:41:46.214Z,22.30
2018-02-21T21:44:17.147Z,26.02
2018-02-21T21:46:48.176Z,24.63
2018-02-21T21:49:19.149Z,23.67
2018-02-21T21:51:50.175Z,26.83
2018-02-21T21:54:21.150Z,23.77
2018-02-21T21:56:52.143Z,23.83
2018-02-21T21:59:23.173Z,23.35
2018-02-21T22:01:54.200Z,22.40
2018-02-21T22:04:25.238Z,22.85
2018-02-21T22:06:56.244Z,23.10
2018-02-21T22:09:27.242Z,24.00
2018-02-21T22:11:58.265Z,25.52
2018-02-21T22:14:29.220Z,22.62
2018-02-21T22:17:00.200Z,19.53
2018-02-21T22:19:31.199Z,25.07
2018-02-21T22:22:02.216Z,22.55
2018-02-21T22:24:33.225Z,26.48
2018-02-21T22:27:04.263Z,27.05
2018-02-21T22:29:35.283Z,27.27
2018-02-21T22:32:06.281Z,24.12
2018-02-21T22:34:37.287Z,22.73
2018-02-21T22:37:08.275Z,21.40
2018-02-21T22:39:39.300Z,24.40
2018-02-21T22:42:10.260Z,24.27
2018-02-21T22:44:41.322Z,23.23
2018-02-21T22:47:12.336Z,24.37
2018-02-21T22:49:43.320Z,23.10
2018-02-21T22:52:14.321Z,21.77
2018-02-21T22:54:45.284Z,21.20
2018-02-21T22:57:16.345Z,21.07
2018-02-21T22:59:47.303Z,20.30
2018-02-21T23:02:18.325Z,24.60
2018-02-21T23:04:49.379Z,22.23
2018-02-21T23:07:20.363Z,22.48
2018-02-21T23:09:51.342Z,21.13
2018-02-21T23:12:22.294Z,22.50
2018-02-21T23:14:53.320Z,24.83
2018-02-21T23:17:24.290Z,22.45
2018-02-21T23:19:55.365Z,23.53
2018-02-21T23:22:26.330Z,25.15
2018-02-21T23:24:57.342Z,29.00
2018-02-21T23:27:28.335Z,24.37
2018-02-21T23:29:59.320Z,23.95
2018-02-21T23:32:30.319Z,22.63
2018-02-21T23:35:01.286Z,25.17
2018-02-21T23:37:32.272Z,27.13
2018-02-21T23:40:03.263Z,29.57
2018-02-21T23:42:34.322Z,24.33
2018-02-21T23:45:05.336Z,23.35
2018-02-21T23:47:36.367Z,25.35
2018-02-21T23:50:07.336Z,26.37
2018-02-21T23:52:38.338Z,29.70
2018-02-21T23:55:09.332Z,24.58
2018-02-21T23:57:40.354Z,29.63
